sensor_id;sensor_type;location;lat;lon;timestamp;temperature;humidity
36652;DHT22;53334;51.976;20.144;2023-02-28T00:00:25;25.90;40.80
36652;DHT22;53334;51.976;20.144;2023-02-28T00:02:58;25.90;40.70
36652;DHT22;53334;51.976;20.144;2023-02-28T00:05:31;26.00;40.30
36652;DHT22;53334;51.976;20.144;2023-02-28T00:08:05;25.90;40.70
36652;DHT22;53334;51.976;20.144;2023-02-28T00:10:38;25.90;40.30
36652;DHT22;53334;51.976;20.144;2023-02-28T00:13:11;25.90;40.60
36652;DHT22;53334;51.976;20.144;2023-02-28T00:15:46;25.90;40.60
36652;DHT22;53334;51.976;20.144;2023-02-28T00:18:19;25.90;40.40
36652;DHT22;53334;51.976;20.144;2023-02-28T00:20:52;25.90;40.10
36652;DHT22;53334;51.976;20.144;2023-02-28T00:23:26;25.90;40.50
36652;DHT22;53334;51.976;20.144;2023-02-28T00:25:59;25.90;40.40
36652;DHT22;53334;51.976;20.144;2023-02-28T00:28:32;25.90;40.30
36652;DHT22;53334;51.976;20.144;2023-02-28T00:31:07;25.90;40.20
36652;DHT22;53334;51.976;20.144;2023-02-28T00:33:40;25.90;40.00
36652;DHT22;53334;51.976;20.144;2023-02-28T00:36:13;25.90;39.80
36652;DHT22;53334;51.976;20.144;2023-02-28T00:38:46;25.90;40.10
36652;DHT22;53334;51.976;20.144;2023-02-28T00:41:19;25.90;40.30
36652;DHT22;53334;51.976;20.144;2023-02-28T00:43:53;25.90;40.20
36652;DHT22;53334;51.976;20.144;2023-02-28T00:46:27;25.90;40.20
36652;DHT22;53334;51.976;20.144;2023-02-28T00:49:02;25.90;39.80
36652;DHT22;53334;51.976;20.144;2023-02-28T00:51:35;25.90;40.30
36652;DHT22;53334;51.976;20.144;2023-02-28T00:54:08;25.90;39.90
36652;DHT22;53334;51.976;20.144;2023-02-28T00:56:41;25.90;40.10
36652;DHT22;53334;51.976;20.144;2023-02-28T00:59:15;25.90;40.40
36652;DHT22;53334;51.976;20.144;2023-02-28T01:01:50;25.90;40.60
36652;DHT22;53334;51.976;20.144;2023-02-28T01:04:24;25.90;40.80
36652;DHT22;53334;51.976;20.144;2023-02-28T01:06:57;25.90;40.80
36652;DHT22;53334;51.976;20.144;2023-02-28T01:09:30;25.90;40.70
36652;DHT22;53334;51.976;20.144;2023-02-28T01:12:03;25.90;40.70
36652;DHT22;53334;51.976;20.144;2023-02-28T01:14:37;25.90;40.70
36652;DHT22;53334;51.976;20.144;2023-02-28T01:17:12;25.80;40.60
36652;DHT22;53334;51.976;20.144;2023-02-28T01:19:45;25.90;40.70
36652;DHT22;53334;51.976;20.144;2023-02-28T01:22:18;25.90;40.60
36652;DHT22;53334;51.976;20.144;2023-02-28T01:24:51;25.80;40.70
36652;DHT22;53334;51.976;20.144;2023-02-28T01:27:24;25.80;40.70
36652;DHT22;53334;51.976;20.144;2023-02-28T01:29:58;25.80;40.70
36652;DHT22;53334;51.976;20.144;2023-02-28T01:32:32;25.80;40.60
36652;DHT22;53334;51.976;20.144;2023-02-28T01:35:05;25.80;40.70
36652;DHT22;53334;51.976;20.144;2023-02-28T01:37:39;25.80;40.50
36652;DHT22;53334;51.976;20.144;2023-02-28T01:40:12;25.80;40.50
36652;DHT22;53334;51.976;20.144;2023-02-28T01:42:46;25.80;40.60
36652;DHT22;53334;51.976;20.144;2023-02-28T01:45:21;25.80;40.60
36652;DHT22;53334;51.976;20.144;2023-02-28T01:47:57;25.80;40.60
36652;DHT22;53334;51.976;20.144;2023-02-28T01:50:31;25.80;40.60
36652;DHT22;53334;51.976;20.144;2023-02-28T01:53:09;25.80;40.60
36652;DHT22;53334;51.976;20.144;2023-02-28T01:55:46;25.70;40.50
36652;DHT22;53334;51.976;20.144;2023-02-28T01:58:19;25.80;40.70
36652;DHT22;53334;51.976;20.144;2023-02-28T02:00:53;25.70;40.40
36652;DHT22;53334;51.976;20.144;2023-02-28T02:03:27;25.70;40.50
36652;DHT22;53334;51.976;20.144;2023-02-28T02:06:01;25.70;40.30
36652;DHT22;53334;51.976;20.144;2023-02-28T02:08:35;25.70;40.30
36652;DHT22;53334;51.976;20.144;2023-02-28T02:11:11;25.70;40.50
36652;DHT22;53334;51.976;20.144;2023-02-28T02:13:52;25.70;40.50
36652;DHT22;53334;51.976;20.144;2023-02-28T02:16:32;25.70;40.50
36652;DHT22;53334;51.976;20.144;2023-02-28T02:19:13;25.70;40.50
36652;DHT22;53334;51.976;20.144;2023-02-28T02:22:02;25.70;40.40
36652;DHT22;53334;51.976;20.144;2023-02-28T02:27:48;25.70;40.70
36652;DHT22;53334;51.976;20.144;2023-02-28T02:33:38;25.70;40.80
36652;DHT22;53334;51.976;20.144;2023-02-28T02:36:19;25.70;40.90
36652;DHT22;53334;51.976;20.144;2023-02-28T02:38:55;25.70;40.90
36652;DHT22;53334;51.976;20.144;2023-02-28T02:41:32;25.70;40.90
36652;DHT22;53334;51.976;20.144;2023-02-28T02:44:11;25.70;40.90
36652;DHT22;53334;51.976;20.144;2023-02-28T02:46:45;25.70;40.90
36652;DHT22;53334;51.976;20.144;2023-02-28T02:49:20;25.70;41.00
36652;DHT22;53334;51.976;20.144;2023-02-28T02:51:56;25.70;41.00
36652;DHT22;53334;51.976;20.144;2023-02-28T02:54:31;25.70;41.00
36652;DHT22;53334;51.976;20.144;2023-02-28T02:57:07;25.70;41.00
36652;DHT22;53334;51.976;20.144;2023-02-28T02:59:41;25.70;41.10
36652;DHT22;53334;51.976;20.144;2023-02-28T03:02:14;25.70;41.10
36652;DHT22;53334;51.976;20.144;2023-02-28T03:04:50;25.70;41.10
36652;DHT22;53334;51.976;20.144;2023-02-28T03:07:27;25.70;41.20
36652;DHT22;53334;51.976;20.144;2023-02-28T03:10:00;25.70;41.10
36652;DHT22;53334;51.976;20.144;2023-02-28T03:12:38;25.70;41.20
36652;DHT22;53334;51.976;20.144;2023-02-28T03:15:14;25.70;41.20
36652;DHT22;53334;51.976;20.144;2023-02-28T03:17:58;25.70;41.20
36652;DHT22;53334;51.976;20.144;2023-02-28T03:20:35;25.70;41.20
36652;DHT22;53334;51.976;20.144;2023-02-28T03:23:14;25.70;41.20
36652;DHT22;53334;51.976;20.144;2023-02-28T03:25:53;25.70;41.30
36652;DHT22;53334;51.976;20.144;2023-02-28T03:28:31;25.60;41.20
36652;DHT22;53334;51.976;20.144;2023-02-28T03:31:06;25.60;41.20
36652;DHT22;53334;51.976;20.144;2023-02-28T03:33:42;25.60;41.20
36652;DHT22;53334;51.976;20.144;2023-02-28T03:36:17;25.70;41.30
36652;DHT22;53334;51.976;20.144;2023-02-28T03:38:54;25.60;41.20
36652;DHT22;53334;51.976;20.144;2023-02-28T03:41:30;25.60;41.20
36652;DHT22;53334;51.976;20.144;2023-02-28T03:44:05;25.60;41.20
36652;DHT22;53334;51.976;20.144;2023-02-28T03:46:40;25.70;41.30
36652;DHT22;53334;51.976;20.144;2023-02-28T03:49:15;25.60;41.20
36652;DHT22;53334;51.976;20.144;2023-02-28T03:51:48;25.60;41.20
36652;DHT22;53334;51.976;20.144;2023-02-28T03:54:26;25.60;41.20
36652;DHT22;53334;51.976;20.144;2023-02-28T03:57:02;25.60;41.20
36652;DHT22;53334;51.976;20.144;2023-02-28T03:59:37;25.60;41.20
36652;DHT22;53334;51.976;20.144;2023-02-28T04:02:12;25.60;41.20
36652;DHT22;53334;51.976;20.144;2023-02-28T04:04:45;25.60;41.20
36652;DHT22;53334;51.976;20.144;2023-02-28T04:07:20;25.60;41.20
36652;DHT22;53334;51.976;20.144;2023-02-28T04:09:55;25.60;41.30
36652;DHT22;53334;51.976;20.144;2023-02-28T04:12:28;25.60;41.30
36652;DHT22;53334;51.976;20.144;2023-02-28T04:15:01;25.60;41.20
36652;DHT22;53334;51.976;20.144;2023-02-28T04:17:34;25.60;41.30
36652;DHT22;53334;51.976;20.144;2023-02-28T04:20:08;25.60;41.30
36652;DHT22;53334;51.976;20.144;2023-02-28T04:22:42;25.60;41.30
36652;DHT22;53334;51.976;20.144;2023-02-28T04:25:16;25.60;41.30
36652;DHT22;53334;51.976;20.144;2023-02-28T04:27:49;25.60;41.30
36652;DHT22;53334;51.976;20.144;2023-02-28T04:30:22;25.60;41.30
36652;DHT22;53334;51.976;20.144;2023-02-28T04:32:56;25.60;41.30
36652;DHT22;53334;51.976;20.144;2023-02-28T04:35:29;25.60;41.30
36652;DHT22;53334;51.976;20.144;2023-02-28T04:38:02;25.60;41.30
36652;DHT22;53334;51.976;20.144;2023-02-28T04:40:36;25.60;41.20
36652;DHT22;53334;51.976;20.144;2023-02-28T04:43:09;25.60;41.20
36652;DHT22;53334;51.976;20.144;2023-02-28T04:45:42;25.60;41.30
36652;DHT22;53334;51.976;20.144;2023-02-28T04:48:15;25.60;41.30
36652;DHT22;53334;51.976;20.144;2023-02-28T04:50:49;25.60;41.30
36652;DHT22;53334;51.976;20.144;2023-02-28T04:53:22;25.60;41.30
36652;DHT22;53334;51.976;20.144;2023-02-28T04:55:56;25.60;41.90
36652;DHT22;53334;51.976;20.144;2023-02-28T04:58:29;25.60;41.30
36652;DHT22;53334;51.976;20.144;2023-02-28T05:01:03;25.60;41.30
36652;DHT22;53334;51.976;20.144;2023-02-28T05:03:44;25.60;41.30
36652;DHT22;53334;51.976;20.144;2023-02-28T05:06:17;25.60;41.30
36652;DHT22;53334;51.976;20.144;2023-02-28T05:08:50;25.60;41.30
36652;DHT22;53334;51.976;20.144;2023-02-28T05:11:26;25.60;41.30
36652;DHT22;53334;51.976;20.144;2023-02-28T05:14:01;25.60;41.30
36652;DHT22;53334;51.976;20.144;2023-02-28T05:16:35;25.60;41.30
36652;DHT22;53334;51.976;20.144;2023-02-28T05:19:08;25.60;41.30
36652;DHT22;53334;51.976;20.144;2023-02-28T05:21:41;25.60;41.30
36652;DHT22;53334;51.976;20.144;2023-02-28T05:24:21;25.50;41.20
36652;DHT22;53334;51.976;20.144;2023-02-28T05:26:56;25.60;41.30
36652;DHT22;53334;51.976;20.144;2023-02-28T05:29:29;25.60;41.30
36652;DHT22;53334;51.976;20.144;2023-02-28T05:32:03;25.50;41.20
36652;DHT22;53334;51.976;20.144;2023-02-28T05:34:36;25.60;41.30
36652;DHT22;53334;51.976;20.144;2023-02-28T05:37:10;25.60;41.30
36652;DHT22;53334;51.976;20.144;2023-02-28T05:39:44;25.60;41.30
36652;DHT22;53334;51.976;20.144;2023-02-28T05:42:18;25.60;41.30
36652;DHT22;53334;51.976;20.144;2023-02-28T05:44:51;25.60;41.20
36652;DHT22;53334;51.976;20.144;2023-02-28T05:47:24;25.60;41.30
36652;DHT22;53334;51.976;20.144;2023-02-28T05:49:58;25.50;41.20
36652;DHT22;53334;51.976;20.144;2023-02-28T05:52:31;25.60;41.30
36652;DHT22;53334;51.976;20.144;2023-02-28T05:55:05;25.60;41.30
36652;DHT22;53334;51.976;20.144;2023-02-28T05:57:40;25.50;41.20
36652;DHT22;53334;51.976;20.144;2023-02-28T06:00:14;25.60;41.20
36652;DHT22;53334;51.976;20.144;2023-02-28T06:02:49;25.60;41.20
36652;DHT22;53334;51.976;20.144;2023-02-28T06:05:23;25.50;41.20
36652;DHT22;53334;51.976;20.144;2023-02-28T06:07:56;25.60;41.20
36652;DHT22;53334;51.976;20.144;2023-02-28T06:10:29;25.50;41.20
36652;DHT22;53334;51.976;20.144;2023-02-28T06:13:04;25.50;41.20
36652;DHT22;53334;51.976;20.144;2023-02-28T06:15:37;25.50;41.20
36652;DHT22;53334;51.976;20.144;2023-02-28T06:18:10;25.50;41.20
36652;DHT22;53334;51.976;20.144;2023-02-28T06:20:43;25.60;41.20
36652;DHT22;53334;51.976;20.144;2023-02-28T06:23:16;25.50;40.90
36652;DHT22;53334;51.976;20.144;2023-02-28T06:25:49;25.50;41.10
36652;DHT22;53334;51.976;20.144;2023-02-28T06:28:26;25.50;41.10
36652;DHT22;53334;51.976;20.144;2023-02-28T06:30:59;25.50;41.10
36652;DHT22;53334;51.976;20.144;2023-02-28T06:33:32;25.50;41.10
36652;DHT22;53334;51.976;20.144;2023-02-28T06:36:06;25.50;41.10
36652;DHT22;53334;51.976;20.144;2023-02-28T06:38:39;25.50;41.10
36652;DHT22;53334;51.976;20.144;2023-02-28T06:41:12;25.50;41.10
36652;DHT22;53334;51.976;20.144;2023-02-28T06:43:47;25.50;40.70
36652;DHT22;53334;51.976;20.144;2023-02-28T06:46:20;25.50;41.10
36652;DHT22;53334;51.976;20.144;2023-02-28T06:48:53;25.50;41.10
36652;DHT22;53334;51.976;20.144;2023-02-28T06:51:27;25.50;41.10
36652;DHT22;53334;51.976;20.144;2023-02-28T06:54:00;25.50;41.10
36652;DHT22;53334;51.976;20.144;2023-02-28T06:56:34;25.50;41.10
36652;DHT22;53334;51.976;20.144;2023-02-28T06:59:08;25.50;41.10
36652;DHT22;53334;51.976;20.144;2023-02-28T07:01:41;25.50;41.00
36652;DHT22;53334;51.976;20.144;2023-02-28T07:04:14;25.50;40.90
36652;DHT22;53334;51.976;20.144;2023-02-28T07:06:47;25.50;40.70
36652;DHT22;53334;51.976;20.144;2023-02-28T07:09:21;25.50;40.20
36652;DHT22;53334;51.976;20.144;2023-02-28T07:11:54;25.50;40.10
36652;DHT22;53334;51.976;20.144;2023-02-28T07:14:28;25.60;40.50
36652;DHT22;53334;51.976;20.144;2023-02-28T07:17:01;25.60;40.70
36652;DHT22;53334;51.976;20.144;2023-02-28T07:19:35;25.60;40.70
36652;DHT22;53334;51.976;20.144;2023-02-28T07:22:08;25.60;40.70
36652;DHT22;53334;51.976;20.144;2023-02-28T07:24:41;25.60;40.90
36652;DHT22;53334;51.976;20.144;2023-02-28T07:27:14;25.60;40.90
36652;DHT22;53334;51.976;20.144;2023-02-28T07:29:56;25.60;40.90
36652;DHT22;53334;51.976;20.144;2023-02-28T07:32:33;25.60;40.90
36652;DHT22;53334;51.976;20.144;2023-02-28T07:35:09;25.60;40.90
36652;DHT22;53334;51.976;20.144;2023-02-28T07:37:42;25.60;41.00
36652;DHT22;53334;51.976;20.144;2023-02-28T07:40:16;25.60;41.10
36652;DHT22;53334;51.976;20.144;2023-02-28T07:42:49;25.60;41.20
36652;DHT22;53334;51.976;20.144;2023-02-28T07:45:24;25.60;41.20
36652;DHT22;53334;51.976;20.144;2023-02-28T07:47:57;25.60;41.20
36652;DHT22;53334;51.976;20.144;2023-02-28T07:50:30;25.70;41.40
36652;DHT22;53334;51.976;20.144;2023-02-28T07:53:03;25.60;41.40
36652;DHT22;53334;51.976;20.144;2023-02-28T07:55:36;25.60;41.40
36652;DHT22;53334;51.976;20.144;2023-02-28T07:58:09;25.70;41.30
36652;DHT22;53334;51.976;20.144;2023-02-28T08:00:44;25.70;41.30
36652;DHT22;53334;51.976;20.144;2023-02-28T08:03:17;25.70;41.20
36652;DHT22;53334;51.976;20.144;2023-02-28T08:05:51;25.70;41.30
36652;DHT22;53334;51.976;20.144;2023-02-28T08:08:25;25.70;41.20
36652;DHT22;53334;51.976;20.144;2023-02-28T08:11:01;25.70;41.20
36652;DHT22;53334;51.976;20.144;2023-02-28T08:13:35;25.80;41.20
36652;DHT22;53334;51.976;20.144;2023-02-28T08:16:10;25.80;41.10
36652;DHT22;53334;51.976;20.144;2023-02-28T08:18:43;25.80;41.00
36652;DHT22;53334;51.976;20.144;2023-02-28T08:21:16;25.80;40.80
36652;DHT22;53334;51.976;20.144;2023-02-28T08:23:50;25.80;40.80
36652;DHT22;53334;51.976;20.144;2023-02-28T08:26:23;25.80;40.70
36652;DHT22;53334;51.976;20.144;2023-02-28T08:28:56;25.80;40.70
36652;DHT22;53334;51.976;20.144;2023-02-28T08:31:33;25.80;40.60
36652;DHT22;53334;51.976;20.144;2023-02-28T08:34:07;25.80;40.50
36652;DHT22;53334;51.976;20.144;2023-02-28T08:36:41;25.90;40.90
36652;DHT22;53334;51.976;20.144;2023-02-28T08:39:14;25.90;40.70
36652;DHT22;53334;51.976;20.144;2023-02-28T08:41:47;25.90;40.60
36652;DHT22;53334;51.976;20.144;2023-02-28T08:44:37;25.90;40.60
36652;DHT22;53334;51.976;20.144;2023-02-28T08:47:12;26.00;40.60
36652;DHT22;53334;51.976;20.144;2023-02-28T08:49:45;26.00;40.50
36652;DHT22;53334;51.976;20.144;2023-02-28T08:52:18;26.00;37.40
36652;DHT22;53334;51.976;20.144;2023-02-28T08:54:51;26.00;30.60
36652;DHT22;53334;51.976;20.144;2023-02-28T08:57:24;26.00;31.30
36652;DHT22;53334;51.976;20.144;2023-02-28T08:59:59;26.00;32.60
36652;DHT22;53334;51.976;20.144;2023-02-28T09:02:34;26.00;32.60
36652;DHT22;53334;51.976;20.144;2023-02-28T09:05:08;26.00;33.80
36652;DHT22;53334;51.976;20.144;2023-02-28T09:07:42;26.00;32.40
36652;DHT22;53334;51.976;20.144;2023-02-28T09:10:15;25.90;31.90
36652;DHT22;53334;51.976;20.144;2023-02-28T09:12:48;26.00;32.40
36652;DHT22;53334;51.976;20.144;2023-02-28T09:15:21;26.00;32.50
36652;DHT22;53334;51.976;20.144;2023-02-28T09:17:56;26.00;32.90
36652;DHT22;53334;51.976;20.144;2023-02-28T09:20:29;26.00;32.90
36652;DHT22;53334;51.976;20.144;2023-02-28T09:23:02;26.10;32.80
36652;DHT22;53334;51.976;20.144;2023-02-28T09:25:36;26.10;33.30
36652;DHT22;53334;51.976;20.144;2023-02-28T09:28:09;26.10;33.50
36652;DHT22;53334;51.976;20.144;2023-02-28T09:30:44;26.10;33.50
36652;DHT22;53334;51.976;20.144;2023-02-28T09:33:19;26.20;33.60
36652;DHT22;53334;51.976;20.144;2023-02-28T09:35:57;26.20;33.50
36652;DHT22;53334;51.976;20.144;2023-02-28T09:38:30;26.20;33.50
36652;DHT22;53334;51.976;20.144;2023-02-28T09:41:08;26.20;32.90
36652;DHT22;53334;51.976;20.144;2023-02-28T09:43:43;26.20;32.70
36652;DHT22;53334;51.976;20.144;2023-02-28T09:46:21;26.20;33.00
36652;DHT22;53334;51.976;20.144;2023-02-28T09:49:01;26.20;33.30
36652;DHT22;53334;51.976;20.144;2023-02-28T09:51:37;26.20;33.90
36652;DHT22;53334;51.976;20.144;2023-02-28T09:54:14;26.30;34.10
36652;DHT22;53334;51.976;20.144;2023-02-28T09:56:51;26.30;34.80
36652;DHT22;53334;51.976;20.144;2023-02-28T09:59:31;26.30;34.80
36652;DHT22;53334;51.976;20.144;2023-02-28T10:02:12;26.40;35.30
36652;DHT22;53334;51.976;20.144;2023-02-28T10:05:13;26.40;35.20
36652;DHT22;53334;51.976;20.144;2023-02-28T10:07:52;26.50;34.80
36652;DHT22;53334;51.976;20.144;2023-02-28T10:10:29;26.50;35.00
36652;DHT22;53334;51.976;20.144;2023-02-28T10:13:06;26.50;35.10
36652;DHT22;53334;51.976;20.144;2023-02-28T10:15:44;26.50;35.00
36652;DHT22;53334;51.976;20.144;2023-02-28T10:18:21;26.50;34.90
36652;DHT22;53334;51.976;20.144;2023-02-28T10:20:57;26.50;34.90
36652;DHT22;53334;51.976;20.144;2023-02-28T10:23:34;26.50;34.90
36652;DHT22;53334;51.976;20.144;2023-02-28T10:26:09;26.50;35.00
36652;DHT22;53334;51.976;20.144;2023-02-28T10:28:44;26.50;34.90
36652;DHT22;53334;51.976;20.144;2023-02-28T10:31:18;26.50;35.10
36652;DHT22;53334;51.976;20.144;2023-02-28T10:33:52;26.50;35.20
36652;DHT22;53334;51.976;20.144;2023-02-28T10:36:26;26.50;35.30
36652;DHT22;53334;51.976;20.144;2023-02-28T10:39:16;26.60;35.40
36652;DHT22;53334;51.976;20.144;2023-02-28T10:42:00;26.60;35.50
36652;DHT22;53334;51.976;20.144;2023-02-28T10:44:33;26.60;35.70
36652;DHT22;53334;51.976;20.144;2023-02-28T10:47:08;26.60;35.70
36652;DHT22;53334;51.976;20.144;2023-02-28T10:49:46;26.60;35.80
36652;DHT22;53334;51.976;20.144;2023-02-28T10:52:32;26.60;35.90
36652;DHT22;53334;51.976;20.144;2023-02-28T10:55:16;26.60;36.10
36652;DHT22;53334;51.976;20.144;2023-02-28T10:57:53;26.60;36.30
36652;DHT22;53334;51.976;20.144;2023-02-28T11:00:31;26.60;36.30
36652;DHT22;53334;51.976;20.144;2023-02-28T11:03:05;26.60;36.30
36652;DHT22;53334;51.976;20.144;2023-02-28T11:05:55;26.60;36.40
36652;DHT22;53334;51.976;20.144;2023-02-28T11:08:28;26.70;36.60
36652;DHT22;53334;51.976;20.144;2023-02-28T11:11:03;26.70;36.60
36652;DHT22;53334;51.976;20.144;2023-02-28T11:13:39;26.70;36.30
36652;DHT22;53334;51.976;20.144;2023-02-28T11:16:12;26.70;36.30
36652;DHT22;53334;51.976;20.144;2023-02-28T11:18:48;26.70;36.10
36652;DHT22;53334;51.976;20.144;2023-02-28T11:21:22;26.70;36.10
36652;DHT22;53334;51.976;20.144;2023-02-28T11:24:00;26.70;36.40
36652;DHT22;53334;51.976;20.144;2023-02-28T11:26:36;26.70;36.40
36652;DHT22;53334;51.976;20.144;2023-02-28T11:29:12;26.70;36.70
36652;DHT22;53334;51.976;20.144;2023-02-28T11:34:59;26.70;36.80
36652;DHT22;53334;51.976;20.144;2023-02-28T11:37:33;26.70;36.90
36652;DHT22;53334;51.976;20.144;2023-02-28T11:40:12;26.70;37.00
36652;DHT22;53334;51.976;20.144;2023-02-28T11:42:48;26.70;37.50
36652;DHT22;53334;51.976;20.144;2023-02-28T11:45:29;26.70;36.50
36652;DHT22;53334;51.976;20.144;2023-02-28T11:48:10;26.70;36.40
36652;DHT22;53334;51.976;20.144;2023-02-28T11:50:52;26.70;36.50
36652;DHT22;53334;51.976;20.144;2023-02-28T11:53:32;26.70;36.60
36652;DHT22;53334;51.976;20.144;2023-02-28T11:56:10;26.70;36.60
36652;DHT22;53334;51.976;20.144;2023-02-28T11:58:49;26.70;37.00
36652;DHT22;53334;51.976;20.144;2023-02-28T12:01:30;26.70;37.30
36652;DHT22;53334;51.976;20.144;2023-02-28T12:04:10;26.70;36.80
36652;DHT22;53334;51.976;20.144;2023-02-28T12:06:45;26.70;37.00
36652;DHT22;53334;51.976;20.144;2023-02-28T12:09:28;26.70;37.40
36652;DHT22;53334;51.976;20.144;2023-02-28T12:12:10;26.70;36.60
36652;DHT22;53334;51.976;20.144;2023-02-28T12:15:00;26.70;36.90
36652;DHT22;53334;51.976;20.144;2023-02-28T12:17:41;26.60;36.00
36652;DHT22;53334;51.976;20.144;2023-02-28T12:20:19;26.60;35.00
36652;DHT22;53334;51.976;20.144;2023-02-28T12:22:59;26.60;35.00
36652;DHT22;53334;51.976;20.144;2023-02-28T12:28:43;26.60;35.30
36652;DHT22;53334;51.976;20.144;2023-02-28T12:31:19;26.60;35.30
36652;DHT22;53334;51.976;20.144;2023-02-28T12:33:56;26.60;35.40
36652;DHT22;53334;51.976;20.144;2023-02-28T12:36:29;26.60;35.40
36652;DHT22;53334;51.976;20.144;2023-02-28T12:39:03;26.60;35.90
36652;DHT22;53334;51.976;20.144;2023-02-28T12:41:39;26.60;36.40
36652;DHT22;53334;51.976;20.144;2023-02-28T12:44:14;26.60;36.60
36652;DHT22;53334;51.976;20.144;2023-02-28T12:46:49;26.60;36.60
36652;DHT22;53334;51.976;20.144;2023-02-28T12:49:25;26.60;36.80
36652;DHT22;53334;51.976;20.144;2023-02-28T12:52:02;26.60;36.70
36652;DHT22;53334;51.976;20.144;2023-02-28T12:54:38;26.60;36.90
36652;DHT22;53334;51.976;20.144;2023-02-28T12:57:13;26.60;37.00
36652;DHT22;53334;51.976;20.144;2023-02-28T12:59:48;26.50;36.00
36652;DHT22;53334;51.976;20.144;2023-02-28T13:02:41;26.50;29.40
36652;DHT22;53334;51.976;20.144;2023-02-28T13:08:31;26.30;26.40
36652;DHT22;53334;51.976;20.144;2023-02-28T13:11:22;26.30;28.10
36652;DHT22;53334;51.976;20.144;2023-02-28T13:14:00;26.20;27.40
36652;DHT22;53334;51.976;20.144;2023-02-28T13:19:27;26.20;28.10
36652;DHT22;53334;51.976;20.144;2023-02-28T13:22:01;26.10;28.40
36652;DHT22;53334;51.976;20.144;2023-02-28T13:24:44;26.10;29.20
36652;DHT22;53334;51.976;20.144;2023-02-28T13:27:21;26.10;29.70
36652;DHT22;53334;51.976;20.144;2023-02-28T13:29:56;26.10;30.30
36652;DHT22;53334;51.976;20.144;2023-02-28T13:32:33;26.10;30.00
36652;DHT22;53334;51.976;20.144;2023-02-28T13:38:15;26.10;30.40
36652;DHT22;53334;51.976;20.144;2023-02-28T13:40:50;26.00;31.10
36652;DHT22;53334;51.976;20.144;2023-02-28T13:43:24;26.00;31.50
36652;DHT22;53334;51.976;20.144;2023-02-28T13:46:16;26.00;31.80
36652;DHT22;53334;51.976;20.144;2023-02-28T13:48:49;26.00;31.20
36652;DHT22;53334;51.976;20.144;2023-02-28T13:51:38;26.00;31.40
36652;DHT22;53334;51.976;20.144;2023-02-28T13:54:17;26.00;32.10
36652;DHT22;53334;51.976;20.144;2023-02-28T13:56:55;26.00;32.10
36652;DHT22;53334;51.976;20.144;2023-02-28T13:59:32;26.00;32.40
36652;DHT22;53334;51.976;20.144;2023-02-28T14:02:13;26.00;32.80
36652;DHT22;53334;51.976;20.144;2023-02-28T14:04:59;26.00;32.90
36652;DHT22;53334;51.976;20.144;2023-02-28T14:07:36;26.00;33.30
36652;DHT22;53334;51.976;20.144;2023-02-28T14:10:19;25.90;32.70
36652;DHT22;53334;51.976;20.144;2023-02-28T14:12:57;25.90;33.70
36652;DHT22;53334;51.976;20.144;2023-02-28T14:15:54;25.90;33.80
36652;DHT22;53334;51.976;20.144;2023-02-28T14:18:29;25.90;33.70
36652;DHT22;53334;51.976;20.144;2023-02-28T14:21:09;25.90;33.40
36652;DHT22;53334;51.976;20.144;2023-02-28T14:23:46;25.90;33.00
36652;DHT22;53334;51.976;20.144;2023-02-28T14:26:28;25.90;33.20
36652;DHT22;53334;51.976;20.144;2023-02-28T14:29:17;25.90;33.30
36652;DHT22;53334;51.976;20.144;2023-02-28T14:31:53;25.90;33.00
36652;DHT22;53334;51.976;20.144;2023-02-28T14:34:37;25.90;34.00
36652;DHT22;53334;51.976;20.144;2023-02-28T14:37:13;25.90;34.10
36652;DHT22;53334;51.976;20.144;2023-02-28T14:39:50;25.90;33.60
36652;DHT22;53334;51.976;20.144;2023-02-28T14:42:27;25.90;33.30
36652;DHT22;53334;51.976;20.144;2023-02-28T14:45:02;25.90;33.30
36652;DHT22;53334;51.976;20.144;2023-02-28T14:47:35;25.90;33.60
36652;DHT22;53334;51.976;20.144;2023-02-28T14:50:17;25.90;33.30
36652;DHT22;53334;51.976;20.144;2023-02-28T14:52:51;25.90;34.20
36652;DHT22;53334;51.976;20.144;2023-02-28T14:55:27;25.90;34.00
36652;DHT22;53334;51.976;20.144;2023-02-28T14:58:06;25.80;33.60
36652;DHT22;53334;51.976;20.144;2023-02-28T15:00:54;25.80;34.30
36652;DHT22;53334;51.976;20.144;2023-02-28T15:03:30;25.80;34.40
36652;DHT22;53334;51.976;20.144;2023-02-28T15:06:04;25.90;34.10
36652;DHT22;53334;51.976;20.144;2023-02-28T15:08:37;25.80;34.30
36652;DHT22;53334;51.976;20.144;2023-02-28T15:11:12;25.90;34.80
36652;DHT22;53334;51.976;20.144;2023-02-28T15:13:46;25.80;35.20
36652;DHT22;53334;51.976;20.144;2023-02-28T15:16:22;25.90;34.80
36652;DHT22;53334;51.976;20.144;2023-02-28T15:18:59;25.80;35.20
36652;DHT22;53334;51.976;20.144;2023-02-28T15:21:33;25.80;35.30
36652;DHT22;53334;51.976;20.144;2023-02-28T15:24:10;25.80;35.60
36652;DHT22;53334;51.976;20.144;2023-02-28T15:26:45;25.80;35.90
36652;DHT22;53334;51.976;20.144;2023-02-28T15:29:20;25.90;35.90
36652;DHT22;53334;51.976;20.144;2023-02-28T15:31:58;25.80;36.00
36652;DHT22;53334;51.976;20.144;2023-02-28T15:34:34;25.90;36.40
36652;DHT22;53334;51.976;20.144;2023-02-28T15:37:30;25.80;36.10
36652;DHT22;53334;51.976;20.144;2023-02-28T15:40:10;25.80;36.30
36652;DHT22;53334;51.976;20.144;2023-02-28T15:42:57;25.80;36.50
36652;DHT22;53334;51.976;20.144;2023-02-28T15:45:38;25.80;36.40
36652;DHT22;53334;51.976;20.144;2023-02-28T15:48:16;25.80;36.60
36652;DHT22;53334;51.976;20.144;2023-02-28T15:50:51;25.80;36.80
36652;DHT22;53334;51.976;20.144;2023-02-28T15:53:25;25.80;36.80
36652;DHT22;53334;51.976;20.144;2023-02-28T15:56:01;25.80;37.60
36652;DHT22;53334;51.976;20.144;2023-02-28T15:58:35;25.80;37.20
36652;DHT22;53334;51.976;20.144;2023-02-28T16:01:17;25.80;37.30
36652;DHT22;53334;51.976;20.144;2023-02-28T16:03:54;25.80;37.30
36652;DHT22;53334;51.976;20.144;2023-02-28T16:06:38;25.80;37.30
36652;DHT22;53334;51.976;20.144;2023-02-28T16:09:14;25.80;37.50
36652;DHT22;53334;51.976;20.144;2023-02-28T16:11:48;25.80;38.00
36652;DHT22;53334;51.976;20.144;2023-02-28T16:14:23;25.80;38.10
36652;DHT22;53334;51.976;20.144;2023-02-28T16:16:57;25.80;38.40
36652;DHT22;53334;51.976;20.144;2023-02-28T16:19:36;25.80;38.60
36652;DHT22;53334;51.976;20.144;2023-02-28T16:22:09;25.80;38.80
36652;DHT22;53334;51.976;20.144;2023-02-28T16:24:42;25.80;38.80
36652;DHT22;53334;51.976;20.144;2023-02-28T16:27:17;25.80;38.60
36652;DHT22;53334;51.976;20.144;2023-02-28T16:29:51;25.80;38.60